sensor_id;sensor_type;location;lat;lon;timestamp;pressure;altitude;pressure_sealevel;temperature
7389;BMP180;3735;50.136;11.062;2023-10-09T00:01:51;98732.00;;;10.80
7389;BMP180;3735;50.136;11.062;2023-10-09T00:04:17;98726.00;;;10.80
7389;BMP180;3735;50.136;11.062;2023-10-09T00:06:43;98730.00;;;10.90
7389;BMP180;3735;50.136;11.062;2023-10-09T00:09:10;98730.00;;;11.00
7389;BMP180;3735;50.136;11.062;2023-10-09T00:11:48;98741.00;;;11.00
7389;BMP180;3735;50.136;11.062;2023-10-09T00:14:14;98721.00;;;11.10
7389;BMP180;3735;50.136;11.062;2023-10-09T00:16:44;98724.00;;;11.10
7389;BMP180;3735;50.136;11.062;2023-10-09T00:19:21;98725.00;;;11.10
7389;BMP180;3735;50.136;11.062;2023-10-09T00:21:56;98712.00;;;11.10
7389;BMP180;3735;50.136;11.062;2023-10-09T00:24:24;98720.00;;;11.00
7389;BMP180;3735;50.136;11.062;2023-10-09T00:26:54;98706.00;;;11.10
7389;BMP180;3735;50.136;11.062;2023-10-09T00:29:40;98706.00;;;11.10
7389;BMP180;3735;50.136;11.062;2023-10-09T00:32:12;98708.00;;;11.10
7389;BMP180;3735;50.136;11.062;2023-10-09T00:34:49;98697.00;;;11.10
7389;BMP180;3735;50.136;11.062;2023-10-09T00:37:16;98695.00;;;11.10
7389;BMP180;3735;50.136;11.062;2023-10-09T00:39:43;98688.00;;;11.00
7389;BMP180;3735;50.136;11.062;2023-10-09T00:42:11;98684.00;;;11.00
7389;BMP180;3735;50.136;11.062;2023-10-09T00:44:47;98678.00;;;11.00
7389;BMP180;3735;50.136;11.062;2023-10-09T00:47:15;98671.00;;;11.00
7389;BMP180;3735;50.136;11.062;2023-10-09T00:49:57;98662.00;;;11.00
7389;BMP180;3735;50.136;11.062;2023-10-09T00:52:36;98651.00;;;11.00
7389;BMP180;3735;50.136;11.062;2023-10-09T00:55:11;98647.00;;;11.00
7389;BMP180;3735;50.136;11.062;2023-10-09T00:57:47;98654.00;;;11.00
7389;BMP180;3735;50.136;11.062;2023-10-09T01:00:17;98648.00;;;11.00
7389;BMP180;3735;50.136;11.062;2023-10-09T01:03:14;98634.00;;;10.90
7389;BMP180;3735;50.136;11.062;2023-10-09T01:06:02;98629.00;;;10.80
7389;BMP180;3735;50.136;11.062;2023-10-09T01:08:34;98621.00;;;10.90
7389;BMP180;3735;50.136;11.062;2023-10-09T01:11:10;98630.00;;;10.90
7389;BMP180;3735;50.136;11.062;2023-10-09T01:13:41;98607.00;;;10.90
7389;BMP180;3735;50.136;11.062;2023-10-09T01:16:07;98607.00;;;11.00
7389;BMP180;3735;50.136;11.062;2023-10-09T01:18:41;98609.00;;;10.90
7389;BMP180;3735;50.136;11.062;2023-10-09T01:21:12;98604.00;;;10.90
7389;BMP180;3735;50.136;11.062;2023-10-09T01:23:50;98606.00;;;10.80
7389;BMP180;3735;50.136;11.062;2023-10-09T01:26:33;98591.00;;;10.80
7389;BMP180;3735;50.136;11.062;2023-10-09T01:29:18;98582.00;;;10.80
7389;BMP180;3735;50.136;11.062;2023-10-09T01:31:51;98594.00;;;10.70
7389;BMP180;3735;50.136;11.062;2023-10-09T01:34:33;98584.00;;;10.70
7389;BMP180;3735;50.136;11.062;2023-10-09T01:37:18;98577.00;;;10.60
7389;BMP180;3735;50.136;11.062;2023-10-09T01:39:59;98573.00;;;10.60
7389;BMP180;3735;50.136;11.062;2023-10-09T01:42:40;98570.00;;;10.50
7389;BMP180;3735;50.136;11.062;2023-10-09T01:45:13;98565.00;;;10.50
7389;BMP180;3735;50.136;11.062;2023-10-09T01:47:44;98565.00;;;10.40
7389;BMP180;3735;50.136;11.062;2023-10-09T01:50:23;98564.00;;;10.40
7389;BMP180;3735;50.136;11.062;2023-10-09T01:53:01;98570.00;;;10.30
7389;BMP180;3735;50.136;11.062;2023-10-09T01:55:29;98572.00;;;10.20
7389;BMP180;3735;50.136;11.062;2023-10-09T01:58:05;98569.00;;;10.10
7389;BMP180;3735;50.136;11.062;2023-10-09T02:00:32;98564.00;;;10.00
7389;BMP180;3735;50.136;11.062;2023-10-09T02:03:09;98565.00;;;9.90
7389;BMP180;3735;50.136;11.062;2023-10-09T02:05:49;98585.00;;;9.80
7389;BMP180;3735;50.136;11.062;2023-10-09T02:08:30;98578.00;;;9.70
7389;BMP180;3735;50.136;11.062;2023-10-09T02:10:56;98580.00;;;9.70
7389;BMP180;3735;50.136;11.062;2023-10-09T02:13:23;98581.00;;;9.60
7389;BMP180;3735;50.136;11.062;2023-10-09T02:16:00;98579.00;;;9.60
7389;BMP180;3735;50.136;11.062;2023-10-09T02:18:40;98575.00;;;9.50
7389;BMP180;3735;50.136;11.062;2023-10-09T02:21:18;98580.00;;;9.50
7389;BMP180;3735;50.136;11.062;2023-10-09T02:23:55;98571.00;;;9.40
7389;BMP180;3735;50.136;11.062;2023-10-09T02:26:23;98567.00;;;9.40
7389;BMP180;3735;50.136;11.062;2023-10-09T02:28:55;98573.00;;;9.40
7389;BMP180;3735;50.136;11.062;2023-10-09T02:31:26;98575.00;;;9.30
7389;BMP180;3735;50.136;11.062;2023-10-09T02:34:10;98571.00;;;9.30
7389;BMP180;3735;50.136;11.062;2023-10-09T02:36:37;98568.00;;;9.30
7389;BMP180;3735;50.136;11.062;2023-10-09T02:39:09;98577.00;;;9.30
7389;BMP180;3735;50.136;11.062;2023-10-09T02:41:56;98575.00;;;9.40
7389;BMP180;3735;50.136;11.062;2023-10-09T02:44:51;98570.00;;;9.30
7389;BMP180;3735;50.136;11.062;2023-10-09T02:47:21;98556.00;;;9.40
7389;BMP180;3735;50.136;11.062;2023-10-09T02:49:55;98552.00;;;9.50
7389;BMP180;3735;50.136;11.062;2023-10-09T02:52:32;98548.00;;;9.50
7389;BMP180;3735;50.136;11.062;2023-10-09T02:55:06;98543.00;;;9.50
7389;BMP180;3735;50.136;11.062;2023-10-09T02:57:56;98536.00;;;9.50
7389;BMP180;3735;50.136;11.062;2023-10-09T03:00:44;98538.00;;;9.60
7389;BMP180;3735;50.136;11.062;2023-10-09T03:03:10;98546.00;;;9.50
7389;BMP180;3735;50.136;11.062;2023-10-09T03:05:36;98541.00;;;9.50
7389;BMP180;3735;50.136;11.062;2023-10-09T03:08:08;98529.00;;;9.60
7389;BMP180;3735;50.136;11.062;2023-10-09T03:10:34;98527.00;;;9.70
7389;BMP180;3735;50.136;11.062;2023-10-09T03:13:00;98519.00;;;9.80
7389;BMP180;3735;50.136;11.062;2023-10-09T03:15:28;98514.00;;;9.90
7389;BMP180;3735;50.136;11.062;2023-10-09T03:17:56;98507.00;;;10.00
7389;BMP180;3735;50.136;11.062;2023-10-09T03:20:22;98503.00;;;9.90
7389;BMP180;3735;50.136;11.062;2023-10-09T03:22:47;98505.00;;;9.90
7389;BMP180;3735;50.136;11.062;2023-10-09T03:25:15;98487.00;;;9.90
7389;BMP180;3735;50.136;11.062;2023-10-09T03:27:43;98468.00;;;9.90
7389;BMP180;3735;50.136;11.062;2023-10-09T03:30:15;98455.00;;;10.00
7389;BMP180;3735;50.136;11.062;2023-10-09T03:32:54;98476.00;;;10.10
7389;BMP180;3735;50.136;11.062;2023-10-09T03:35:23;98495.00;;;10.20
7389;BMP180;3735;50.136;11.062;2023-10-09T03:37:59;98497.00;;;10.20
7389;BMP180;3735;50.136;11.062;2023-10-09T03:40:28;98496.00;;;10.10
7389;BMP180;3735;50.136;11.062;2023-10-09T03:42:54;98485.00;;;10.20
7389;BMP180;3735;50.136;11.062;2023-10-09T03:45:22;98484.00;;;10.30
7389;BMP180;3735;50.136;11.062;2023-10-09T03:47:56;98483.00;;;10.40
7389;BMP180;3735;50.136;11.062;2023-10-09T03:50:35;98486.00;;;10.50
7389;BMP180;3735;50.136;11.062;2023-10-09T03:53:06;98490.00;;;10.70
7389;BMP180;3735;50.136;11.062;2023-10-09T03:55:35;98496.00;;;10.80
7389;BMP180;3735;50.136;11.062;2023-10-09T03:58:01;98500.00;;;10.80
7389;BMP180;3735;50.136;11.062;2023-10-09T04:00:29;98499.00;;;10.90
7389;BMP180;3735;50.136;11.062;2023-10-09T04:02:57;98482.00;;;10.90
7389;BMP180;3735;50.136;11.062;2023-10-09T04:05:25;98490.00;;;10.90
7389;BMP180;3735;50.136;11.062;2023-10-09T04:07:51;98486.00;;;10.90
7389;BMP180;3735;50.136;11.062;2023-10-09T04:10:20;98495.00;;;10.90
7389;BMP180;3735;50.136;11.062;2023-10-09T04:13:04;98493.00;;;10.90
7389;BMP180;3735;50.136;11.062;2023-10-09T04:15:36;98493.00;;;10.90
7389;BMP180;3735;50.136;11.062;2023-10-09T04:18:02;98488.00;;;10.80
7389;BMP180;3735;50.136;11.062;2023-10-09T04:20:30;98486.00;;;10.80
7389;BMP180;3735;50.136;11.062;2023-10-09T04:23:16;98452.00;;;10.90
7389;BMP180;3735;50.136;11.062;2023-10-09T04:25:42;98483.00;;;10.90
7389;BMP180;3735;50.136;11.062;2023-10-09T04:28:09;98462.00;;;10.90
7389;BMP180;3735;50.136;11.062;2023-10-09T04:30:45;98477.00;;;10.90
7389;BMP180;3735;50.136;11.062;2023-10-09T04:33:35;98482.00;;;11.00
7389;BMP180;3735;50.136;11.062;2023-10-09T04:36:09;98477.00;;;11.00
7389;BMP180;3735;50.136;11.062;2023-10-09T04:39:01;98465.00;;;11.00
7389;BMP180;3735;50.136;11.062;2023-10-09T04:41:30;98462.00;;;10.90
7389;BMP180;3735;50.136;11.062;2023-10-09T04:44:21;98474.00;;;11.00
7389;BMP180;3735;50.136;11.062;2023-10-09T04:46:55;98475.00;;;11.00
7389;BMP180;3735;50.136;11.062;2023-10-09T04:49:39;98482.00;;;11.10
7389;BMP180;3735;50.136;11.062;2023-10-09T04:52:18;98485.00;;;11.10
7389;BMP180;3735;50.136;11.062;2023-10-09T04:55:05;98483.00;;;11.00
7389;BMP180;3735;50.136;11.062;2023-10-09T04:57:35;98484.00;;;11.10
7389;BMP180;3735;50.136;11.062;2023-10-09T05:00:14;98483.00;;;11.00
7389;BMP180;3735;50.136;11.062;2023-10-09T05:02:58;98476.00;;;11.00
7389;BMP180;3735;50.136;11.062;2023-10-09T05:05:30;98469.00;;;10.90
7389;BMP180;3735;50.136;11.062;2023-10-09T05:08:15;98464.00;;;10.90
7389;BMP180;3735;50.136;11.062;2023-10-09T05:10:48;98449.00;;;10.80
7389;BMP180;3735;50.136;11.062;2023-10-09T05:13:41;98446.00;;;10.80
7389;BMP180;3735;50.136;11.062;2023-10-09T05:16:14;98458.00;;;11.00
7389;BMP180;3735;50.136;11.062;2023-10-09T05:18:56;98458.00;;;11.00
7389;BMP180;3735;50.136;11.062;2023-10-09T05:21:42;98457.00;;;11.00
7389;BMP180;3735;50.136;11.062;2023-10-09T05:24:09;98457.00;;;11.00
7389;BMP180;3735;50.136;11.062;2023-10-09T05:26:50;98453.00;;;11.00
7389;BMP180;3735;50.136;11.062;2023-10-09T05:29:24;98456.00;;;11.00
7389;BMP180;3735;50.136;11.062;2023-10-09T05:32:04;98462.00;;;11.00
7389;BMP180;3735;50.136;11.062;2023-10-09T05:34:34;98447.00;;;10.90
7389;BMP180;3735;50.136;11.062;2023-10-09T05:37:06;98452.00;;;11.00
7389;BMP180;3735;50.136;11.062;2023-10-09T05:39:55;98425.00;;;10.90
7389;BMP180;3735;50.136;11.062;2023-10-09T05:42:34;98443.00;;;10.90
7389;BMP180;3735;50.136;11.062;2023-10-09T05:45:08;98444.00;;;10.80
7389;BMP180;3735;50.136;11.062;2023-10-09T05:47:53;98441.00;;;10.90
7389;BMP180;3735;50.136;11.062;2023-10-09T05:50:20;98449.00;;;10.90
7389;BMP180;3735;50.136;11.062;2023-10-09T05:52:50;98446.00;;;10.90
7389;BMP180;3735;50.136;11.062;2023-10-09T05:55:25;98450.00;;;11.00
7389;BMP180;3735;50.136;11.062;2023-10-09T05:58:10;98433.00;;;11.00
7389;BMP180;3735;50.136;11.062;2023-10-09T06:00:54;98434.00;;;11.00
7389;BMP180;3735;50.136;11.062;2023-10-09T06:03:32;98431.00;;;11.10
7389;BMP180;3735;50.136;11.062;2023-10-09T06:06:35;98445.00;;;11.20
7389;BMP180;3735;50.136;11.062;2023-10-09T06:09:13;98451.00;;;11.30
7389;BMP180;3735;50.136;11.062;2023-10-09T06:11:39;98459.00;;;11.30
7389;BMP180;3735;50.136;11.062;2023-10-09T06:14:06;98451.00;;;11.30
7389;BMP180;3735;50.136;11.062;2023-10-09T06:19:11;98455.00;;;11.40
7389;BMP180;3735;50.136;11.062;2023-10-09T06:21:41;98455.00;;;11.50
7389;BMP180;3735;50.136;11.062;2023-10-09T06:24:26;98460.00;;;11.50
7389;BMP180;3735;50.136;11.062;2023-10-09T06:26:59;98459.00;;;11.50
7389;BMP180;3735;50.136;11.062;2023-10-09T06:29:26;98451.00;;;11.50
7389;BMP180;3735;50.136;11.062;2023-10-09T06:32:08;98463.00;;;11.60
7389;BMP180;3735;50.136;11.062;2023-10-09T06:35:02;98460.00;;;11.70
7389;BMP180;3735;50.136;11.062;2023-10-09T06:37:50;98461.00;;;11.80
7389;BMP180;3735;50.136;11.062;2023-10-09T06:43:06;98469.00;;;12.00
7389;BMP180;3735;50.136;11.062;2023-10-09T06:45:56;98464.00;;;12.20
7389;BMP180;3735;50.136;11.062;2023-10-09T06:48:41;98464.00;;;12.30
7389;BMP180;3735;50.136;11.062;2023-10-09T06:51:12;98461.00;;;12.40
7389;BMP180;3735;50.136;11.062;2023-10-09T06:53:42;98472.00;;;12.50
7389;BMP180;3735;50.136;11.062;2023-10-09T06:56:29;98469.00;;;12.60
7389;BMP180;3735;50.136;11.062;2023-10-09T06:58:56;98476.00;;;12.60
7389;BMP180;3735;50.136;11.062;2023-10-09T07:01:30;98466.00;;;12.70
7389;BMP180;3735;50.136;11.062;2023-10-09T07:04:12;98470.00;;;12.80
7389;BMP180;3735;50.136;11.062;2023-10-09T07:06:46;98477.00;;;12.90
7389;BMP180;3735;50.136;11.062;2023-10-09T07:09:13;98480.00;;;12.90
7389;BMP180;3735;50.136;11.062;2023-10-09T07:11:42;98490.00;;;12.90
7389;BMP180;3735;50.136;11.062;2023-10-09T07:14:22;98500.00;;;13.00
7389;BMP180;3735;50.136;11.062;2023-10-09T07:17:05;98505.00;;;12.90
7389;BMP180;3735;50.136;11.062;2023-10-09T07:19:46;98498.00;;;12.80
7389;BMP180;3735;50.136;11.062;2023-10-09T07:22:13;98503.00;;;12.80
7389;BMP180;3735;50.136;11.062;2023-10-09T07:24:56;98497.00;;;12.80
7389;BMP180;3735;50.136;11.062;2023-10-09T07:30:08;98490.00;;;12.80
7389;BMP180;3735;50.136;11.062;2023-10-09T07:33:02;98494.00;;;12.90
7389;BMP180;3735;50.136;11.062;2023-10-09T07:35:48;98495.00;;;13.00
7389;BMP180;3735;50.136;11.062;2023-10-09T07:38:25;98493.00;;;13.10
7389;BMP180;3735;50.136;11.062;2023-10-09T07:41:02;98486.00;;;13.10
7389;BMP180;3735;50.136;11.062;2023-10-09T07:43:38;98483.00;;;13.30
7389;BMP180;3735;50.136;11.062;2023-10-09T07:46:06;98503.00;;;13.30
7389;BMP180;3735;50.136;11.062;2023-10-09T07:48:50;98503.00;;;13.30
7389;BMP180;3735;50.136;11.062;2023-10-09T07:51:23;98497.00;;;13.30
7389;BMP180;3735;50.136;11.062;2023-10-09T07:53:57;98501.00;;;13.30
7389;BMP180;3735;50.136;11.062;2023-10-09T07:56:26;98511.00;;;13.30
7389;BMP180;3735;50.136;11.062;2023-10-09T07:58:56;98514.00;;;13.20
7389;BMP180;3735;50.136;11.062;2023-10-09T08:01:26;98515.00;;;13.30
7389;BMP180;3735;50.136;11.062;2023-10-09T08:04:01;98531.00;;;13.30
7389;BMP180;3735;50.136;11.062;2023-10-09T08:06:30;98542.00;;;13.30
7389;BMP180;3735;50.136;11.062;2023-10-09T08:09:09;98535.00;;;13.30
7389;BMP180;3735;50.136;11.062;2023-10-09T08:11:38;98534.00;;;13.40
7389;BMP180;3735;50.136;11.062;2023-10-09T08:14:07;98531.00;;;13.50
7389;BMP180;3735;50.136;11.062;2023-10-09T08:16:50;98537.00;;;13.40
7389;BMP180;3735;50.136;11.062;2023-10-09T08:19:31;98537.00;;;13.50
7389;BMP180;3735;50.136;11.062;2023-10-09T08:22:00;98527.00;;;13.40
7389;BMP180;3735;50.136;11.062;2023-10-09T08:24:44;98534.00;;;13.50
7389;BMP180;3735;50.136;11.062;2023-10-09T08:27:18;98541.00;;;13.60
7389;BMP180;3735;50.136;11.062;2023-10-09T08:30:13;98547.00;;;13.70
7389;BMP180;3735;50.136;11.062;2023-10-09T08:32:52;98537.00;;;13.90
7389;BMP180;3735;50.136;11.062;2023-10-09T08:35:31;98557.00;;;13.90
7389;BMP180;3735;50.136;11.062;2023-10-09T08:38:03;98560.00;;;14.00
7389;BMP180;3735;50.136;11.062;2023-10-09T08:40:41;98555.00;;;14.00
7389;BMP180;3735;50.136;11.062;2023-10-09T08:43:14;98542.00;;;14.00
7389;BMP180;3735;50.136;11.062;2023-10-09T08:45:46;98550.00;;;13.90
7389;BMP180;3735;50.136;11.062;2023-10-09T08:48:12;98554.00;;;13.80
7389;BMP180;3735;50.136;11.062;2023-10-09T08:50:49;98552.00;;;13.80
7389;BMP180;3735;50.136;11.062;2023-10-09T08:53:21;98550.00;;;13.80
7389;BMP180;3735;50.136;11.062;2023-10-09T08:55:47;98549.00;;;13.80
7389;BMP180;3735;50.136;11.062;2023-10-09T08:58:17;98546.00;;;13.90
7389;BMP180;3735;50.136;11.062;2023-10-09T09:00:51;98547.00;;;13.90
7389;BMP180;3735;50.136;11.062;2023-10-09T09:03:19;98551.00;;;13.90
7389;BMP180;3735;50.136;11.062;2023-10-09T09:06:09;98561.00;;;13.90
7389;BMP180;3735;50.136;11.062;2023-10-09T09:08:35;98558.00;;;13.90
7389;BMP180;3735;50.136;11.062;2023-10-09T09:11:13;98560.00;;;14.00
7389;BMP180;3735;50.136;11.062;2023-10-09T09:14:05;98565.00;;;13.90
7389;BMP180;3735;50.136;11.062;2023-10-09T09:16:34;98555.00;;;13.90
7389;BMP180;3735;50.136;11.062;2023-10-09T09:19:07;98557.00;;;13.90
7389;BMP180;3735;50.136;11.062;2023-10-09T09:21:59;98563.00;;;14.00
7389;BMP180;3735;50.136;11.062;2023-10-09T09:24:25;98557.00;;;14.10
7389;BMP180;3735;50.136;11.062;2023-10-09T09:26:54;98565.00;;;14.10
7389;BMP180;3735;50.136;11.062;2023-10-09T09:29:40;98561.00;;;14.20
7389;BMP180;3735;50.136;11.062;2023-10-09T09:32:09;98570.00;;;14.20
7389;BMP180;3735;50.136;11.062;2023-10-09T09:34:53;98558.00;;;14.40
7389;BMP180;3735;50.136;11.062;2023-10-09T09:37:24;98563.00;;;14.50
7389;BMP180;3735;50.136;11.062;2023-10-09T09:40:01;98563.00;;;14.50
7389;BMP180;3735;50.136;11.062;2023-10-09T09:42:37;98566.00;;;14.70
7389;BMP180;3735;50.136;11.062;2023-10-09T09:45:07;98564.00;;;14.80
7389;BMP180;3735;50.136;11.062;2023-10-09T09:47:34;98557.00;;;15.10
7389;BMP180;3735;50.136;11.062;2023-10-09T09:50:05;98555.00;;;15.10
7389;BMP180;3735;50.136;11.062;2023-10-09T09:52:38;98556.00;;;15.30
7389;BMP180;3735;50.136;11.062;2023-10-09T09:55:09;98561.00;;;15.50
7389;BMP180;3735;50.136;11.062;2023-10-09T09:57:45;98546.00;;;15.60
7389;BMP180;3735;50.136;11.062;2023-10-09T10:00:20;98563.00;;;15.70
7389;BMP180;3735;50.136;11.062;2023-10-09T10:03:34;98565.00;;;15.70
7389;BMP180;3735;50.136;11.062;2023-10-09T10:06:05;98562.00;;;15.90
7389;BMP180;3735;50.136;11.062;2023-10-09T10:08:36;98560.00;;;15.90
7389;BMP180;3735;50.136;11.062;2023-10-09T10:11:05;98552.00;;;15.80
7389;BMP180;3735;50.136;11.062;2023-10-09T10:16:13;98543.00;;;16.10
7389;BMP180;3735;50.136;11.062;2023-10-09T10:19:04;98548.00;;;16.20
7389;BMP180;3735;50.136;11.062;2023-10-09T10:21:34;98537.00;;;16.50
7389;BMP180;3735;50.136;11.062;2023-10-09T10:24:01;98538.00;;;16.70
7389;BMP180;3735;50.136;11.062;2023-10-09T10:26:33;98530.00;;;17.00
7389;BMP180;3735;50.136;11.062;2023-10-09T10:29:19;98522.00;;;16.90
7389;BMP180;3735;50.136;11.062;2023-10-09T10:32:02;98516.00;;;16.80
7389;BMP180;3735;50.136;11.062;2023-10-09T10:37:41;98510.00;;;16.70
7389;BMP180;3735;50.136;11.062;2023-10-09T10:40:32;98499.00;;;16.80
7389;BMP180;3735;50.136;11.062;2023-10-09T10:43:17;98495.00;;;16.90
7389;BMP180;3735;50.136;11.062;2023-10-09T10:46:15;98500.00;;;17.00
7389;BMP180;3735;50.136;11.062;2023-10-09T10:48:50;98515.00;;;17.00
7389;BMP180;3735;50.136;11.062;2023-10-09T10:51:29;98516.00;;;17.10
7389;BMP180;3735;50.136;11.062;2023-10-09T10:54:07;98536.00;;;16.90
7389;BMP180;3735;50.136;11.062;2023-10-09T10:57:19;98527.00;;;17.00
7389;BMP180;3735;50.136;11.062;2023-10-09T10:59:45;98539.00;;;17.00
7389;BMP180;3735;50.136;11.062;2023-10-09T11:02:12;98529.00;;;16.80
7389;BMP180;3735;50.136;11.062;2023-10-09T11:04:38;98524.00;;;16.70
7389;BMP180;3735;50.136;11.062;2023-10-09T11:07:06;98513.00;;;16.60
7389;BMP180;3735;50.136;11.062;2023-10-09T11:09:55;98523.00;;;16.40
7389;BMP180;3735;50.136;11.062;2023-10-09T11:12:32;98524.00;;;16.60
7389;BMP180;3735;50.136;11.062;2023-10-09T11:15:13;98522.00;;;16.60
7389;BMP180;3735;50.136;11.062;2023-10-09T11:18:06;98535.00;;;16.90
7389;BMP180;3735;50.136;11.062;2023-10-09T11:20:43;98548.00;;;16.90
7389;BMP180;3735;50.136;11.062;2023-10-09T11:23:23;98544.00;;;16.80
7389;BMP180;3735;50.136;11.062;2023-10-09T11:26:04;98559.00;;;16.70
7389;BMP180;3735;50.136;11.062;2023-10-09T11:32:06;98554.00;;;16.40
7389;BMP180;3735;50.136;11.062;2023-10-09T11:34:35;98562.00;;;16.40
7389;BMP180;3735;50.136;11.062;2023-10-09T11:37:14;98553.00;;;16.60
7389;BMP180;3735;50.136;11.062;2023-10-09T11:40:00;98537.00;;;16.60
7389;BMP180;3735;50.136;11.062;2023-10-09T11:42:29;98538.00;;;16.70
7389;BMP180;3735;50.136;11.062;2023-10-09T11:45:27;98516.00;;;16.80
7389;BMP180;3735;50.136;11.062;2023-10-09T11:48:17;98463.00;;;16.90
7389;BMP180;3735;50.136;11.062;2023-10-09T11:50:52;98445.00;;;16.70
7389;BMP180;3735;50.136;11.062;2023-10-09T11:53:43;98450.00;;;16.60
7389;BMP180;3735;50.136;11.062;2023-10-09T11:56:10;98449.00;;;16.70
7389;BMP180;3735;50.136;11.062;2023-10-09T11:58:40;98450.00;;;16.80
7389;BMP180;3735;50.136;11.062;2023-10-09T12:01:13;98457.00;;;16.90
7389;BMP180;3735;50.136;11.062;2023-10-09T12:03:43;98462.00;;;17.00
7389;BMP180;3735;50.136;11.062;2023-10-09T12:06:27;98436.00;;;17.00
7389;BMP180;3735;50.136;11.062;2023-10-09T12:08:57;98420.00;;;17.00
7389;BMP180;3735;50.136;11.062;2023-10-09T12:11:24;98419.00;;;17.00
7389;BMP180;3735;50.136;11.062;2023-10-09T12:13:57;98424.00;;;17.30
7389;BMP180;3735;50.136;11.062;2023-10-09T12:16:24;98416.00;;;17.50
7389;BMP180;3735;50.136;11.062;2023-10-09T12:18:57;98443.00;;;17.90
7389;BMP180;3735;50.136;11.062;2023-10-09T12:21:24;98426.00;;;18.10
7389;BMP180;3735;50.136;11.062;2023-10-09T12:23:50;98440.00;;;18.40
7389;BMP180;3735;50.136;11.062;2023-10-09T12:26:15;98427.00;;;18.70
7389;BMP180;3735;50.136;11.062;2023-10-09T12:28:43;98441.00;;;18.70
7389;BMP180;3735;50.136;11.062;2023-10-09T12:31:15;98452.00;;;19.20
7389;BMP180;3735;50.136;11.062;2023-10-09T12:33:42;98455.00;;;19.40
7389;BMP180;3735;50.136;11.062;2023-10-09T12:36:14;98433.00;;;19.40
7389;BMP180;3735;50.136;11.062;2023-10-09T12:38:46;98442.00;;;19.50
7389;BMP180;3735;50.136;11.062;2023-10-09T12:41:16;98433.00;;;19.70
7389;BMP180;3735;50.136;11.062;2023-10-09T12:43:54;98437.00;;;19.90
7389;BMP180;3735;50.136;11.062;2023-10-09T12:46:20;98434.00;;;19.60
7389;BMP180;3735;50.136;11.062;2023-10-09T12:48:54;98428.00;;;19.50
7389;BMP180;3735;50.136;11.062;2023-10-09T12:51:21;98432.00;;;19.40
7389;BMP180;3735;50.136;11.062;2023-10-09T12:53:51;98435.00;;;19.20
7389;BMP180;3735;50.136;11.062;2023-10-09T12:56:26;98440.00;;;19.20
7389;BMP180;3735;50.136;11.062;2023-10-09T12:59:01;98433.00;;;18.90
7389;BMP180;3735;50.136;11.062;2023-10-09T13:01:31;98437.00;;;19.30
7389;BMP180;3735;50.136;11.062;2023-10-09T13:04:11;98439.00;;;19.10
7389;BMP180;3735;50.136;11.062;2023-10-09T13:06:38;98432.00;;;19.00
7389;BMP180;3735;50.136;11.062;2023-10-09T13:09:14;98439.00;;;19.10
7389;BMP180;3735;50.136;11.062;2023-10-09T13:12:08;98439.00;;;19.00
7389;BMP180;3735;50.136;11.062;2023-10-09T13:14:34;98452.00;;;18.70
7389;BMP180;3735;50.136;11.062;2023-10-09T13:17:01;98436.00;;;18.50
7389;BMP180;3735;50.136;11.062;2023-10-09T13:19:35;98452.00;;;18.60
7389;BMP180;3735;50.136;11.062;2023-10-09T13:22:01;98433.00;;;18.40
7389;BMP180;3735;50.136;11.062;2023-10-09T13:24:29;98447.00;;;18.30
7389;BMP180;3735;50.136;11.062;2023-10-09T13:26:56;98445.00;;;18.40
7389;BMP180;3735;50.136;11.062;2023-10-09T13:29:24;98441.00;;;18.40
7389;BMP180;3735;50.136;11.062;2023-10-09T13:31:50;98450.00;;;18.30
7389;BMP180;3735;50.136;11.062;2023-10-09T13:34:24;98448.00;;;18.20
7389;BMP180;3735;50.136;11.062;2023-10-09T13:36:54;98456.00;;;18.60
7389;BMP180;3735;50.136;11.062;2023-10-09T13:39:21;98462.00;;;18.60
7389;BMP180;3735;50.136;11.062;2023-10-09T13:41:58;98462.00;;;18.50
7389;BMP180;3735;50.136;11.062;2023-10-09T13:44:29;98466.00;;;18.70
7389;BMP180;3735;50.136;11.062;2023-10-09T13:46:59;98472.00;;;18.60
7389;BMP180;3735;50.136;11.062;2023-10-09T13:49:27;98465.00;;;18.60
7389;BMP180;3735;50.136;11.062;2023-10-09T13:51:59;98467.00;;;18.60
7389;BMP180;3735;50.136;11.062;2023-10-09T13:54:27;98470.00;;;18.50
7389;BMP180;3735;50.136;11.062;2023-10-09T13:57:06;98468.00;;;18.40
7389;BMP180;3735;50.136;11.062;2023-10-09T13:59:34;98467.00;;;18.20
7389;BMP180;3735;50.136;11.062;2023-10-09T14:02:08;98477.00;;;18.10
7389;BMP180;3735;50.136;11.062;2023-10-09T14:04:43;98487.00;;;18.10
7389;BMP180;3735;50.136;11.062;2023-10-09T14:07:09;98482.00;;;18.00
7389;BMP180;3735;50.136;11.062;2023-10-09T14:09:36;98488.00;;;17.80
7389;BMP180;3735;50.136;11.062;2023-10-09T14:12:06;98491.00;;;17.60
7389;BMP180;3735;50.136;11.062;2023-10-09T14:14:43;98497.00;;;17.60
7389;BMP180;3735;50.136;11.062;2023-10-09T14:17:22;98502.00;;;17.50
7389;BMP180;3735;50.136;11.062;2023-10-09T14:19:54;98476.00;;;17.40
7389;BMP180;3735;50.136;11.062;2023-10-09T14:22:25;98476.00;;;17.30
7389;BMP180;3735;50.136;11.062;2023-10-09T14:24:53;98464.00;;;17.30
7389;BMP180;3735;50.136;11.062;2023-10-09T14:27:24;98468.00;;;17.20
7389;BMP180;3735;50.136;11.062;2023-10-09T14:29:56;98484.00;;;17.00
7389;BMP180;3735;50.136;11.062;2023-10-09T14:32:25;98467.00;;;17.10
7389;BMP180;3735;50.136;11.062;2023-10-09T14:34:55;98456.00;;;17.00
7389;BMP180;3735;50.136;11.062;2023-10-09T14:37:27;98469.00;;;16.90
7389;BMP180;3735;50.136;11.062;2023-10-09T14:39:53;98449.00;;;16.90
7389;BMP180;3735;50.136;11.062;2023-10-09T14:42:21;98455.00;;;16.90
7389;BMP180;3735;50.136;11.062;2023-10-09T14:44:49;98439.00;;;16.80
7389;BMP180;3735;50.136;11.062;2023-10-09T14:47:16;98428.00;;;16.80
7389;BMP180;3735;50.136;11.062;2023-10-09T14:49:47;98435.00;;;16.80
7389;BMP180;3735;50.136;11.062;2023-10-09T14:52:15;98435.00;;;16.90
7389;BMP180;3735;50.136;11.062;2023-10-09T14:54:46;98430.00;;;16.90
7389;BMP180;3735;50.136;11.062;2023-10-09T14:57:15;98442.00;;;16.90
7389;BMP180;3735;50.136;11.062;2023-10-09T14:59:41;98443.00;;;16.90
7389;BMP180;3735;50.136;11.062;2023-10-09T15:02:08;98428.00;;;17.00
7389;BMP180;3735;50.136;11.062;2023-10-09T15:04:34;98417.00;;;17.00
7389;BMP180;3735;50.136;11.062;2023-10-09T15:07:03;98417.00;;;17.00
7389;BMP180;3735;50.136;11.062;2023-10-09T15:09:33;98405.00;;;17.00
7389;BMP180;3735;50.136;11.062;2023-10-09T15:12:01;98402.00;;;17.00
7389;BMP180;3735;50.136;11.062;2023-10-09T15:14:27;98404.00;;;17.00
7389;BMP180;3735;50.136;11.062;2023-10-09T15:16:53;98423.00;;;16.90
7389;BMP180;3735;50.136;11.062;2023-10-09T15:19:19;98416.00;;;16.90
7389;BMP180;3735;50.136;11.062;2023-10-09T15:21:45;98418.00;;;16.80
7389;BMP180;3735;50.136;11.062;2023-10-09T15:24:16;98419.00;;;16.90